createdAt,value
2023-02-04T00:00:23.520Z,60.32
2023-02-04T00:02:55.321Z,60.47
2023-02-04T00:05:27.048Z,60.94
2023-02-04T00:07:58.915Z,60.69
2023-02-04T00:10:37.239Z,61.05
2023-02-04T00:13:10.597Z,61.01
2023-02-04T00:15:42.277Z,61.13
2023-02-04T00:18:14.301Z,61.13
2023-02-04T00:20:45.980Z,60.91
2023-02-04T00:23:17.674Z,61.44
2023-02-04T00:25:50.180Z,61.57
2023-02-04T00:28:23.855Z,61.68
2023-02-04T00:30:55.555Z,61.93
2023-02-04T00:33:27.276Z,61.93
2023-02-04T00:36:01.949Z,62.09
2023-02-04T00:38:33.647Z,62.53
2023-02-04T00:41:07.070Z,62.08
2023-02-04T00:43:38.875Z,62.45
2023-02-04T00:46:10.602Z,62.74
2023-02-04T00:48:42.400Z,62.85
2023-02-04T00:51:14.285Z,63.41
2023-02-04T00:53:46.178Z,63.35
2023-02-04T00:56:17.893Z,63.92
2023-02-04T00:58:49.680Z,64.03
2023-02-04T01:01:21.434Z,64.20
2023-02-04T01:03:53.599Z,64.36
2023-02-04T01:06:25.719Z,64.53
2023-02-04T01:08:57.446Z,64.59
2023-02-04T01:11:30.771Z,64.76
2023-02-04T01:14:02.944Z,65.13
2023-02-04T01:16:34.617Z,65.25
2023-02-04T01:19:06.996Z,65.68
2023-02-04T01:21:40.933Z,66.31
2023-02-04T01:24:15.269Z,66.75
2023-02-04T01:27:05.647Z,68.22
2023-02-04T01:29:44.920Z,68.57
2023-02-04T01:32:16.622Z,69.85
2023-02-04T01:34:48.330Z,71.33
2023-02-04T01:37:20.320Z,72.15
2023-02-04T01:39:52.130Z,72.08
2023-02-04T01:42:24.035Z,72.59
2023-02-04T01:44:56.218Z,71.43
2023-02-04T01:47:28.107Z,70.76
2023-02-04T01:50:00.665Z,68.78
2023-02-04T01:52:36.947Z,67.81
2023-02-04T01:55:20.513Z,68.03
2023-02-04T01:57:53.304Z,68.00
2023-02-04T02:00:31.052Z,68.30
2023-02-04T02:03:03.747Z,67.61
2023-02-04T02:05:41.204Z,68.25
2023-02-04T02:08:16.285Z,68.08
2023-02-04T02:10:50.562Z,68.20
2023-02-04T02:13:22.531Z,68.20
2023-02-04T02:15:57.305Z,68.62
2023-02-04T02:18:29.041Z,68.32
2023-02-04T02:21:06.466Z,68.04
2023-02-04T02:24:01.530Z,67.01
2023-02-04T02:26:36.473Z,66.73
2023-02-04T02:29:08.154Z,66.33
2023-02-04T02:31:42.829Z,65.94
2023-02-04T02:34:14.729Z,65.11
2023-02-04T02:36:46.433Z,64.75
2023-02-04T02:39:19.095Z,65.25
2023-02-04T02:41:51.067Z,65.51
2023-02-04T02:44:23.862Z,65.16
2023-02-04T02:46:56.105Z,65.50
2023-02-04T02:49:30.824Z,65.32
2023-02-04T02:52:03.770Z,65.41
2023-02-04T02:54:35.471Z,64.83
2023-02-04T02:57:15.249Z,64.00
2023-02-04T02:59:50.553Z,63.73
2023-02-04T03:02:24.192Z,63.65
2023-02-04T03:05:00.895Z,63.79
2023-02-04T03:07:38.191Z,63.55
2023-02-04T03:10:10.587Z,64.07
2023-02-04T03:12:44.445Z,64.18
2023-02-04T03:15:20.470Z,64.09
2023-02-04T03:17:56.732Z,64.92
2023-02-04T03:20:31.604Z,64.68
2023-02-04T03:23:04.131Z,64.83
2023-02-04T03:25:38.904Z,65.89
2023-02-04T03:28:10.629Z,66.27
2023-02-04T03:30:42.467Z,66.96
2023-02-04T03:33:14.297Z,67.52
2023-02-04T03:35:46.020Z,67.94
2023-02-04T03:38:21.741Z,68.32
2023-02-04T03:40:53.830Z,69.02
2023-02-04T03:43:27.897Z,69.70
2023-02-04T03:46:05.773Z,69.73
2023-02-04T03:48:37.705Z,69.33
2023-02-04T03:51:12.539Z,68.62
2023-02-04T03:53:44.080Z,69.08
2023-02-04T03:56:16.058Z,68.03
2023-02-04T03:58:49.945Z,67.55
2023-02-04T04:01:26.876Z,67.07
2023-02-04T04:03:58.678Z,67.16
2023-02-04T04:06:34.325Z,66.66
2023-02-04T04:09:10.088Z,66.37
2023-02-04T04:11:45.623Z,66.79
2023-02-04T04:14:18.184Z,67.23
2023-02-04T04:16:49.875Z,68.30
2023-02-04T04:19:21.535Z,68.70
2023-02-04T04:21:53.188Z,68.27
2023-02-04T04:24:25.364Z,67.57
2023-02-04T04:26:57.020Z,66.86
2023-02-04T04:29:28.733Z,65.93
2023-02-04T04:32:00.478Z,64.79
2023-02-04T04:34:32.164Z,65.37
2023-02-04T04:37:03.861Z,64.09
2023-02-04T04:39:35.559Z,64.47
2023-02-04T04:42:10.191Z,64.18
2023-02-04T04:44:41.922Z,63.52
2023-02-04T04:47:13.619Z,62.91
2023-02-04T04:49:45.267Z,63.47
2023-02-04T04:52:18.213Z,63.23
2023-02-04T04:54:49.865Z,62.84
2023-02-04T04:57:21.589Z,63.13
2023-02-04T04:59:53.362Z,62.96
2023-02-04T05:02:25.008Z,62.23
2023-02-04T05:04:56.701Z,62.50
2023-02-04T05:07:31.343Z,62.33
2023-02-04T05:10:03.889Z,62.23
2023-02-04T05:12:38.394Z,62.70
2023-02-04T05:15:10.256Z,62.25
2023-02-04T05:17:41.936Z,61.53
2023-02-04T05:20:19.510Z,62.22
2023-02-04T05:22:52.779Z,61.56
2023-02-04T05:25:24.868Z,62.40
2023-02-04T05:27:59.975Z,61.63
2023-02-04T05:30:32.101Z,61.37
2023-02-04T05:33:03.960Z,61.92
2023-02-04T05:35:42.277Z,61.75
2023-02-04T05:38:13.914Z,62.32
2023-02-04T05:40:45.653Z,61.89
2023-02-04T05:43:23.383Z,62.34
2023-02-04T05:45:58.370Z,62.18
2023-02-04T05:48:30.167Z,62.10
2023-02-04T05:51:01.931Z,61.88
2023-02-04T05:53:36.746Z,61.39
2023-02-04T05:56:08.308Z,61.81
2023-02-04T05:58:40.192Z,61.91
2023-02-04T06:01:14.562Z,61.67
2023-02-04T06:03:46.536Z,61.33
2023-02-04T06:06:18.255Z,61.01
2023-02-04T06:08:49.952Z,60.71
2023-02-04T06:11:21.681Z,60.72
2023-02-04T06:13:53.336Z,60.46
2023-02-04T06:16:25.205Z,60.78
2023-02-04T06:18:59.672Z,60.49
2023-02-04T06:21:31.402Z,60.26
2023-02-04T06:24:05.482Z,60.26
2023-02-04T06:26:38.296Z,60.22
2023-02-04T06:29:10.020Z,59.93
2023-02-04T06:31:41.830Z,60.36
2023-02-04T06:34:13.526Z,60.18
2023-02-04T06:36:45.180Z,60.42
2023-02-04T06:39:21.060Z,59.70
2023-02-04T06:41:53.800Z,60.51
2023-02-04T06:44:27.073Z,60.22
2023-02-04T06:46:58.846Z,60.40
2023-02-04T06:49:30.543Z,60.13
2023-02-04T06:52:02.377Z,60.04
2023-02-04T06:54:35.257Z,59.72
2023-02-04T06:57:06.969Z,59.51
2023-02-04T06:59:40.224Z,59.27
2023-02-04T07:02:12.504Z,59.53
2023-02-04T07:04:45.527Z,59.47
2023-02-04T07:07:22.805Z,59.17
2023-02-04T07:09:54.496Z,59.07
2023-02-04T07:12:26.163Z,57.98
2023-02-04T07:14:57.873Z,58.17
2023-02-04T07:17:30.951Z,57.58
2023-02-04T07:20:03.148Z,58.26
2023-02-04T07:22:39.974Z,58.19
2023-02-04T07:25:15.025Z,57.80
2023-02-04T07:27:46.769Z,57.72
2023-02-04T07:30:21.374Z,57.83
2023-02-04T07:32:53.760Z,58.25
2023-02-04T07:35:25.582Z,56.48
2023-02-04T07:37:57.245Z,51.62
2023-02-04T07:40:28.957Z,49.04
2023-02-04T07:43:00.764Z,46.24
2023-02-04T07:45:33.534Z,41.50
2023-02-04T07:48:10.981Z,41.08
2023-02-04T07:50:51.251Z,41.75
2023-02-04T07:53:22.978Z,41.27
2023-02-04T07:55:54.647Z,43.60
2023-02-04T07:58:26.776Z,45.30
2023-02-04T08:01:01.324Z,46.56
2023-02-04T08:03:33.149Z,48.33
2023-02-04T08:06:07.456Z,50.08
2023-02-04T08:08:39.176Z,51.76
2023-02-04T08:11:11.031Z,53.02
2023-02-04T08:13:43.914Z,53.60
2023-02-04T08:16:15.733Z,54.92
2023-02-04T08:18:47.474Z,54.79
2023-02-04T08:21:19.716Z,54.43
2023-02-04T08:23:51.451Z,55.09
2023-02-04T08:26:25.708Z,55.37
2023-02-04T08:28:57.414Z,53.68
2023-02-04T08:31:29.523Z,53.19
2023-02-04T08:34:01.316Z,52.55
2023-02-04T08:36:42.435Z,52.87
2023-02-04T08:39:17.230Z,52.43
2023-02-04T08:41:52.181Z,51.36
2023-02-04T08:44:23.888Z,50.72
2023-02-04T08:46:55.571Z,50.68
2023-02-04T08:49:27.429Z,50.51
2023-02-04T08:52:02.390Z,50.85
2023-02-04T08:54:35.169Z,51.17
2023-02-04T08:57:06.832Z,52.11
2023-02-04T08:59:39.904Z,51.99
2023-02-04T09:02:14.357Z,51.41
2023-02-04T09:04:46.353Z,51.85
2023-02-04T09:07:20.183Z,52.78
2023-02-04T09:09:51.885Z,53.63
2023-02-04T09:12:23.575Z,53.32
2023-02-04T09:14:58.393Z,53.24
2023-02-04T09:17:29.968Z,53.64
2023-02-04T09:20:01.940Z,53.19
2023-02-04T09:22:33.668Z,62.09
2023-02-04T09:25:06.275Z,55.62
2023-02-04T09:27:40.180Z,52.04
2023-02-04T09:30:12.434Z,53.15
2023-02-04T09:32:44.090Z,52.21
2023-02-04T09:35:18.575Z,51.67
2023-02-04T09:37:50.442Z,51.25
2023-02-04T09:40:22.244Z,52.10
2023-02-04T09:42:55.713Z,51.76
2023-02-04T09:45:32.111Z,50.96
2023-02-04T09:48:12.866Z,50.10
2023-02-04T09:50:45.572Z,49.19
2023-02-04T09:53:25.171Z,48.11
2023-02-04T09:55:57.116Z,47.06
2023-02-04T09:58:33.167Z,46.23
2023-02-04T10:01:21.358Z,45.83
2023-02-04T10:03:59.710Z,44.83
2023-02-04T10:06:31.819Z,45.88
2023-02-04T10:09:03.642Z,46.02
2023-02-04T10:11:39.202Z,47.56
2023-02-04T10:14:21.360Z,47.80
2023-02-04T10:16:59.535Z,47.96
2023-02-04T10:19:34.758Z,48.50
2023-02-04T10:22:18.287Z,49.67
2023-02-04T10:24:50.043Z,49.38
2023-02-04T10:27:23.267Z,49.56
2023-02-04T10:29:57.161Z,49.40
2023-02-04T10:32:32.127Z,49.44
2023-02-04T10:35:04.014Z,50.57
2023-02-04T10:37:35.721Z,50.44
2023-02-04T10:40:27.375Z,50.82
2023-02-04T10:43:00.971Z,51.54
2023-02-04T10:45:35.719Z,51.16
2023-02-04T10:48:23.169Z,51.94
2023-02-04T10:50:56.771Z,52.22
2023-02-04T10:53:47.219Z,52.33
2023-02-04T10:56:22.807Z,51.89
2023-02-04T10:58:55.649Z,52.29
2023-02-04T11:01:29.346Z,52.09
2023-02-04T11:04:01.120Z,51.74
2023-02-04T11:06:34.463Z,51.17
2023-02-04T11:09:06.280Z,51.09
2023-02-04T11:11:38.100Z,50.35
2023-02-04T11:14:24.279Z,50.92
2023-02-04T11:17:01.931Z,50.78
2023-02-04T11:19:39.941Z,50.90
2023-02-04T11:22:41.304Z,50.48
2023-02-04T11:25:35.745Z,49.94
2023-02-04T11:28:15.641Z,50.44
2023-02-04T11:30:59.570Z,49.86
2023-02-04T11:33:42.223Z,50.11
2023-02-04T11:36:17.927Z,50.88
2023-02-04T11:38:50.350Z,51.45
2023-02-04T11:41:31.722Z,51.14
2023-02-04T11:44:03.539Z,51.30
2023-02-04T11:46:35.347Z,50.95
2023-02-04T11:49:21.636Z,50.56
2023-02-04T11:52:14.487Z,49.99
2023-02-04T11:54:53.673Z,47.38
2023-02-04T11:57:26.574Z,47.23
2023-02-04T12:00:00.057Z,46.52
2023-02-04T12:02:44.977Z,44.84
2023-02-04T12:05:19.850Z,45.41
2023-02-04T12:07:51.610Z,46.16
2023-02-04T12:10:27.135Z,46.38
2023-02-04T12:12:59.733Z,46.98
2023-02-04T12:15:36.789Z,46.45
2023-02-04T12:18:15.737Z,47.13
2023-02-04T12:20:47.375Z,46.51
2023-02-04T12:23:19.335Z,46.54
2023-02-04T12:25:51.496Z,47.16
2023-02-04T12:28:28.034Z,47.12
2023-02-04T12:30:59.961Z,47.31
2023-02-04T12:33:31.859Z,48.11
2023-02-04T12:36:04.636Z,47.64
2023-02-04T12:38:39.457Z,48.01
2023-02-04T12:41:11.433Z,48.78
2023-02-04T12:43:43.102Z,48.42
2023-02-04T12:46:14.884Z,49.12
2023-02-04T12:48:46.604Z,48.97
2023-02-04T12:51:18.694Z,47.90
2023-02-04T12:53:52.552Z,48.55
2023-02-04T12:56:24.296Z,48.12
2023-02-04T12:58:56.004Z,48.54
2023-02-04T13:01:27.677Z,47.42
2023-02-04T13:03:59.396Z,47.97
2023-02-04T13:06:32.083Z,47.69
2023-02-04T13:09:03.848Z,47.61
2023-02-04T13:11:35.972Z,46.93
2023-02-04T13:14:10.710Z,45.81
2023-02-04T13:16:42.387Z,45.36
2023-02-04T13:19:14.109Z,45.66
2023-02-04T13:21:48.948Z,45.10
2023-02-04T13:24:20.659Z,44.75
2023-02-04T13:26:52.501Z,44.23
2023-02-04T13:29:24.257Z,43.90
2023-02-04T13:31:59.028Z,43.61
2023-02-04T13:34:30.611Z,43.36
2023-02-04T13:37:02.290Z,44.05
2023-02-04T13:39:34.001Z,43.46
2023-02-04T13:42:05.722Z,43.82
2023-02-04T13:44:38.349Z,43.48
2023-02-04T13:47:14.648Z,43.75
2023-02-04T13:49:46.356Z,43.65
2023-02-04T13:52:25.232Z,44.40
2023-02-04T13:54:56.985Z,44.76
2023-02-04T13:57:30.282Z,44.09
2023-02-04T14:00:02.030Z,44.08
2023-02-04T14:02:44.405Z,43.52
2023-02-04T14:05:16.422Z,43.75
2023-02-04T14:07:48.116Z,44.57
2023-02-04T14:10:23.000Z,44.21
2023-02-04T14:12:54.491Z,44.86
2023-02-04T14:15:26.204Z,44.70
2023-02-04T14:17:57.955Z,44.96
2023-02-04T14:20:32.780Z,45.33
2023-02-04T14:23:05.666Z,45.37
2023-02-04T14:25:39.412Z,45.98
2023-02-04T14:28:11.191Z,44.61
2023-02-04T14:30:43.046Z,44.92
2023-02-04T14:33:15.900Z,45.34
2023-02-04T14:35:47.573Z,46.20
2023-02-04T14:38:22.265Z,47.05
2023-02-04T14:40:53.967Z,47.00
2023-02-04T14:43:29.679Z,47.71
2023-02-04T14:46:01.433Z,47.39
2023-02-04T14:48:33.258Z,47.81
2023-02-04T14:51:08.053Z,47.73
2023-02-04T14:53:42.346Z,48.16
2023-02-04T14:56:16.688Z,48.54
2023-02-04T14:58:50.807Z,48.49
2023-02-04T15:01:22.910Z,48.55
2023-02-04T15:03:54.947Z,48.96
2023-02-04T15:06:27.081Z,48.83
2023-02-04T15:08:59.103Z,49.24
2023-02-04T15:11:31.429Z,49.56
2023-02-04T15:14:06.050Z,49.98
2023-02-04T15:16:37.779Z,49.64
2023-02-04T15:19:12.809Z,50.33
2023-02-04T15:21:46.381Z,49.27
2023-02-04T15:24:18.220Z,49.89
2023-02-04T15:26:51.423Z,50.13
2023-02-04T15:29:23.287Z,52.54
2023-02-04T15:31:56.331Z,50.94
2023-02-04T15:34:30.303Z,51.07
2023-02-04T15:37:02.481Z,51.07
2023-02-04T15:39:34.167Z,51.33
2023-02-04T15:42:06.062Z,51.54
2023-02-04T15:44:38.036Z,51.64
2023-02-04T15:47:09.725Z,52.26
2023-02-04T15:49:41.446Z,52.15
2023-02-04T15:52:24.093Z,52.13
2023-02-04T15:54:57.009Z,52.38
2023-02-04T15:57:31.749Z,52.17
2023-02-04T16:00:04.846Z,52.63
2023-02-04T16:02:39.178Z,52.74
2023-02-04T16:05:10.923Z,52.92
2023-02-04T16:07:43.447Z,53.19
2023-02-04T16:10:20.717Z,53.57
2023-02-04T16:12:57.755Z,54.13
2023-02-04T16:15:32.681Z,53.67
2023-02-04T16:18:07.800Z,53.81
2023-02-04T16:20:39.377Z,54.22
2023-02-04T16:23:11.300Z,54.16
2023-02-04T16:25:43.012Z,54.70
2023-02-04T16:28:17.642Z,54.75
2023-02-04T16:30:50.955Z,54.76
2023-02-04T16:33:23.247Z,55.47
2023-02-04T16:36:03.748Z,55.54
2023-02-04T16:38:38.364Z,55.22
2023-02-04T16:41:11.372Z,55.14
2023-02-04T16:43:43.112Z,55.23
2023-02-04T16:46:19.299Z,55.82
2023-02-04T16:48:53.702Z,55.96
2023-02-04T16:51:26.334Z,55.58
2023-02-04T16:54:00.519Z,55.48
2023-02-04T16:56:40.990Z,55.68
2023-02-04T16:59:12.730Z,55.41
2023-02-04T17:01:44.506Z,55.68
2023-02-04T17:04:16.654Z,55.45
2023-02-04T17:06:54.309Z,55.43
2023-02-04T17:12:22.733Z,56.20
2023-02-04T17:14:55.493Z,55.93
2023-02-04T17:17:27.171Z,55.18
2023-02-04T17:20:00.353Z,55.47
2023-02-04T17:22:35.018Z,55.57
2023-02-04T17:25:06.984Z,55.61
2023-02-04T17:27:38.745Z,55.92
2023-02-04T17:30:13.182Z,55.43
2023-02-04T17:32:45.685Z,55.18
2023-02-04T17:35:17.454Z,55.50
2023-02-04T17:37:49.124Z,55.39
2023-02-04T17:40:21.027Z,55.57
2023-02-04T17:42:52.780Z,55.75
2023-02-04T17:45:24.632Z,55.42
2023-02-04T17:47:56.465Z,55.85
2023-02-04T17:53:15.063Z,55.71
2023-02-04T17:55:47.247Z,56.48
2023-02-04T17:58:27.481Z,56.21
2023-02-04T18:00:59.856Z,56.47
2023-02-04T18:03:32.595Z,56.69
2023-02-04T18:06:14.183Z,57.06
2023-02-04T18:08:46.723Z,56.94
2023-02-04T18:11:20.333Z,57.42
2023-02-04T18:14:02.033Z,57.49
2023-02-04T18:16:35.783Z,57.89
2023-02-04T18:19:29.976Z,57.88
2023-02-04T18:22:13.205Z,58.29
2023-02-04T18:24:48.628Z,58.29
2023-02-04T18:27:24.670Z,58.85
2023-02-04T18:30:03.738Z,58.31
2023-02-04T18:32:39.288Z,59.01
2023-02-04T18:35:23.106Z,58.78
2023-02-04T18:37:54.871Z,59.27
2023-02-04T18:40:34.807Z,59.04
2023-02-04T18:43:09.683Z,59.26
2023-02-04T18:45:41.673Z,59.47
2023-02-04T18:48:20.899Z,59.19
2023-02-04T18:50:54.356Z,59.69
2023-02-04T18:53:31.551Z,59.75
2023-02-04T18:56:12.550Z,59.53
2023-02-04T18:58:49.224Z,59.60
2023-02-04T19:01:40.880Z,59.67
2023-02-04T19:04:21.918Z,60.17
2023-02-04T19:06:55.030Z,60.35
2023-02-04T19:09:36.008Z,60.05
2023-02-04T19:12:22.149Z,60.00
2023-02-04T19:14:55.052Z,59.90
2023-02-04T19:17:29.188Z,59.73
2023-02-04T19:20:24.055Z,59.59
2023-02-04T19:22:57.002Z,59.46
2023-02-04T19:25:34.144Z,60.02
2023-02-04T19:28:22.817Z,59.92
2023-02-04T19:31:06.507Z,59.82
2023-02-04T19:33:42.780Z,59.37
2023-02-04T19:36:23.776Z,59.40
2023-02-04T19:39:06.951Z,59.65
2023-02-04T19:41:47.609Z,59.32
2023-02-04T19:44:45.812Z,59.72
2023-02-04T19:47:19.513Z,59.85
2023-02-04T19:49:57.407Z,59.58
2023-02-04T19:52:33.535Z,59.59
2023-02-04T19:55:17.408Z,59.59
2023-02-04T19:57:51.504Z,59.53
2023-02-04T20:00:38.246Z,59.90
2023-02-04T20:03:28.073Z,59.82
2023-02-04T20:06:28.544Z,60.32
2023-02-04T20:09:16.234Z,60.21
2023-02-04T20:12:17.737Z,59.83
2023-02-04T20:15:00.371Z,59.58
2023-02-04T20:17:46.576Z,60.23
2023-02-04T20:20:32.504Z,59.93
2023-02-04T20:23:28.551Z,60.28
2023-02-04T20:26:03.103Z,60.16
2023-02-04T20:28:38.385Z,60.21
2023-02-04T20:31:37.628Z,60.06
2023-02-04T20:34:25.902Z,60.13
2023-02-04T20:37:02.555Z,60.31
2023-02-04T20:39:38.053Z,60.59
2023-02-04T20:42:54.877Z,60.21
2023-02-04T20:45:52.603Z,60.48
2023-02-04T20:48:37.401Z,60.63
2023-02-04T20:51:23.117Z,60.78
2023-02-04T20:54:04.743Z,60.63
2023-02-04T20:56:42.423Z,60.24
2023-02-04T20:59:42.856Z,60.78
2023-02-04T21:02:23.459Z,60.21
2023-02-04T21:04:55.240Z,60.72
2023-02-04T21:07:32.398Z,60.76
2023-02-04T21:10:10.721Z,60.78
2023-02-04T21:12:46.874Z,61.03
2023-02-04T21:15:18.745Z,60.51
2023-02-04T21:17:50.493Z,60.49
2023-02-04T21:20:22.184Z,60.75
2023-02-04T21:22:53.859Z,60.30
2023-02-04T21:25:25.551Z,60.71
2023-02-04T21:27:57.288Z,60.56
2023-02-04T21:30:30.421Z,60.73
2023-02-04T21:33:05.006Z,60.51
2023-02-04T21:35:38.629Z,60.30
2023-02-04T21:38:10.664Z,60.04
2023-02-04T21:40:45.450Z,60.87
2023-02-04T21:43:19.332Z,60.15
2023-02-04T21:45:51.064Z,59.75
2023-02-04T21:48:29.004Z,59.44
2023-02-04T21:51:01.172Z,59.65
2023-02-04T21:53:32.881Z,60.10
2023-02-04T21:56:09.263Z,60.24
2023-02-04T21:58:41.129Z,60.40
2023-02-04T22:01:13.944Z,60.28
2023-02-04T22:03:45.706Z,59.50
2023-02-04T22:06:21.401Z,59.96
2023-02-04T22:08:53.134Z,59.63
2023-02-04T22:11:30.060Z,59.39
2023-02-04T22:14:02.849Z,59.00
2023-02-04T22:16:36.893Z,59.04
2023-02-04T22:19:08.649Z,58.90
2023-02-04T22:21:40.326Z,59.08
2023-02-04T22:24:13.239Z,58.46
2023-02-04T22:26:44.941Z,58.54
2023-02-04T22:29:24.460Z,58.38
2023-02-04T22:32:00.675Z,58.08
2023-02-04T22:34:33.546Z,57.61
2023-02-04T22:37:05.232Z,57.08
2023-02-04T22:39:36.986Z,57.27
2023-02-04T22:42:11.790Z,56.67
2023-02-04T22:44:43.371Z,56.55
2023-02-04T22:47:15.443Z,56.30
2023-02-04T22:49:49.876Z,56.11
2023-02-04T22:52:24.279Z,56.34
2023-02-04T22:54:56.047Z,56.24
2023-02-04T22:57:31.900Z,56.07
2023-02-04T23:00:09.691Z,55.54
2023-02-04T23:02:44.459Z,55.45
2023-02-04T23:05:16.302Z,55.63
2023-02-04T23:07:50.742Z,55.42
2023-02-04T23:10:22.692Z,55.48
2023-02-04T23:12:54.403Z,54.91
2023-02-04T23:15:26.130Z,54.86
2023-02-04T23:18:01.014Z,55.11
2023-02-04T23:20:32.826Z,54.66
2023-02-04T23:23:05.264Z,54.58
2023-02-04T23:25:37.088Z,54.32
2023-02-04T23:28:08.790Z,54.11
2023-02-04T23:30:40.563Z,53.75
2023-02-04T23:33:12.238Z,53.67
2023-02-04T23:35:44.015Z,53.55
2023-02-04T23:38:16.067Z,53.58
2023-02-04T23:40:47.729Z,53.40
2023-02-04T23:43:19.961Z,53.58
2023-02-04T23:45:51.897Z,53.46
2023-02-04T23:48:24.575Z,53.34
2023-02-04T23:51:05.243Z,53.47
2023-02-04T23:53:38.216Z,53.83
2023-02-04T23:56:09.901Z,54.11
2023-02-04T23:58:41.547Z,54.16
